createdAt,value
2019-05-12T00:01:21.033Z,6.46
2019-05-12T00:04:24.833Z,6.34
2019-05-12T00:07:28.724Z,6.28
2019-05-12T00:10:32.580Z,6.18
2019-05-12T00:13:38.327Z,6.19
2019-05-12T00:16:42.064Z,6.04
2019-05-12T00:19:47.940Z,5.95
2019-05-12T00:22:54.773Z,5.87
2019-05-12T00:25:58.979Z,5.81
2019-05-12T00:29:02.812Z,5.75
2019-05-12T00:32:08.577Z,5.79
2019-05-12T00:35:12.242Z,5.78
2019-05-12T00:38:17.711Z,5.82
2019-05-12T00:41:21.636Z,5.79
2019-05-12T00:44:25.618Z,5.71
2019-05-12T00:47:29.451Z,5.71
2019-05-12T00:50:33.347Z,5.72
2019-05-12T00:53:43.146Z,5.77
2019-05-12T00:56:42.882Z,5.74
2019-05-12T00:59:47.812Z,5.78
2019-05-12T01:02:51.802Z,5.76
2019-05-12T01:05:57.712Z,5.79
2019-05-12T01:09:01.379Z,5.77
2019-05-12T01:12:07.796Z,5.72
2019-05-12T01:15:11.371Z,5.69
2019-05-12T01:18:15.265Z,5.71
2019-05-12T01:21:19.125Z,5.66
2019-05-12T01:24:22.938Z,5.71
2019-05-12T01:27:28.738Z,5.74
2019-05-12T01:30:32.449Z,5.61
2019-05-12T01:33:38.117Z,5.61
2019-05-12T01:36:42.135Z,5.59
2019-05-12T01:39:45.965Z,5.56
2019-05-12T01:42:49.884Z,5.46
2019-05-12T01:45:54.331Z,5.43
2019-05-12T01:48:59.094Z,5.43
2019-05-12T01:52:03.545Z,5.40
2019-05-12T01:55:09.743Z,5.33
2019-05-12T01:58:14.240Z,5.27
2019-05-12T02:01:18.542Z,5.23
2019-05-12T02:04:22.473Z,5.34
2019-05-12T02:07:28.015Z,5.31
2019-05-12T02:10:32.656Z,5.26
2019-05-12T02:13:38.073Z,5.27
2019-05-12T02:16:42.797Z,5.31
2019-05-12T02:19:48.054Z,5.22
2019-05-12T02:22:52.643Z,5.19
2019-05-12T02:25:58.535Z,5.24
2019-05-12T02:29:02.151Z,5.21
2019-05-12T02:32:06.225Z,5.16
2019-05-12T02:35:10.975Z,5.13
2019-05-12T02:38:16.231Z,5.07
2019-05-12T02:41:20.581Z,5.08
2019-05-12T02:44:25.029Z,5.10
2019-05-12T02:47:28.909Z,5.18
2019-05-12T02:50:37.753Z,5.12
2019-05-12T02:53:42.766Z,5.12
2019-05-12T02:56:50.492Z,5.20
2019-05-12T02:59:56.143Z,5.25
2019-05-12T03:03:05.390Z,5.29
2019-05-12T03:06:10.489Z,5.21
2019-05-12T03:09:15.246Z,5.14
2019-05-12T03:12:19.246Z,5.01
2019-05-12T03:15:25.033Z,4.95
2019-05-12T03:18:29.891Z,5.05
2019-05-12T03:21:35.235Z,5.02
2019-05-12T03:24:39.800Z,5.02
2019-05-12T03:27:44.554Z,5.06
2019-05-12T03:30:49.444Z,5.26
2019-05-12T03:33:59.679Z,5.39
2019-05-12T03:36:59.966Z,5.69
2019-05-12T03:40:05.430Z,5.43
2019-05-12T03:43:10.445Z,5.77
2019-05-12T03:46:15.397Z,5.75
2019-05-12T03:49:19.457Z,5.81
2019-05-12T03:52:24.378Z,5.74
2019-05-12T03:55:35.843Z,5.71
2019-05-12T03:58:35.301Z,5.82
2019-05-12T04:01:39.521Z,6.02
2019-05-12T04:04:45.325Z,6.01
2019-05-12T04:07:49.416Z,6.19
2019-05-12T04:10:54.804Z,6.10
2019-05-12T04:13:59.034Z,6.17
2019-05-12T04:17:04.757Z,6.22
2019-05-12T04:20:09.125Z,6.28
2019-05-12T04:23:15.314Z,6.32
2019-05-12T04:26:25.081Z,6.33
2019-05-12T04:29:27.514Z,6.41
2019-05-12T04:32:31.450Z,6.48
2019-05-12T04:35:36.023Z,6.40
2019-05-12T04:38:40.090Z,6.40
2019-05-12T04:41:44.717Z,6.51
2019-05-12T04:44:48.853Z,6.53
2019-05-12T04:47:55.218Z,6.52
2019-05-12T04:50:58.384Z,6.66
2019-05-12T04:54:05.337Z,6.80
2019-05-12T04:57:07.916Z,6.96
2019-05-12T05:00:15.397Z,7.00
2019-05-12T05:03:17.876Z,6.93
2019-05-12T05:06:21.704Z,7.12
2019-05-12T05:09:25.602Z,7.27
2019-05-12T05:12:29.422Z,7.33
2019-05-12T05:15:34.686Z,7.41
2019-05-12T05:18:40.788Z,7.44
2019-05-12T05:21:44.625Z,7.46
2019-05-12T05:24:48.558Z,7.73
2019-05-12T05:27:53.301Z,7.71
2019-05-12T05:30:57.262Z,7.76
2019-05-12T05:34:01.100Z,7.99
2019-05-12T05:37:06.088Z,8.00
2019-05-12T05:40:10.889Z,8.16
2019-05-12T05:43:18.432Z,8.08
2019-05-12T05:46:20.508Z,8.11
2019-05-12T05:49:24.347Z,8.46
2019-05-12T05:52:33.095Z,8.37
2019-05-12T05:55:34.562Z,8.67
2019-05-12T05:58:40.380Z,8.57
2019-05-12T06:01:47.002Z,8.68
2019-05-12T06:04:50.890Z,8.68
2019-05-12T06:07:55.170Z,8.81
2019-05-12T06:10:58.994Z,8.79
2019-05-12T06:14:11.098Z,9.03
2019-05-12T06:17:08.519Z,9.20
2019-05-12T06:20:13.434Z,9.34
2019-05-12T06:23:17.533Z,9.47
2019-05-12T06:26:30.899Z,9.37
2019-05-12T06:29:27.106Z,9.68
2019-05-12T06:32:30.997Z,9.59
2019-05-12T06:35:40.656Z,9.82
2019-05-12T06:38:40.706Z,9.80
2019-05-12T06:41:44.603Z,9.96
2019-05-12T06:44:48.949Z,10.08
2019-05-12T06:47:56.104Z,10.09
2019-05-12T06:50:59.777Z,10.11
2019-05-12T06:54:07.391Z,10.38
2019-05-12T06:57:20.925Z,10.27
2019-05-12T07:00:15.039Z,10.50
2019-05-12T07:03:19.557Z,10.43
2019-05-12T07:06:24.867Z,10.62
2019-05-12T07:09:32.434Z,10.53
2019-05-12T07:12:43.546Z,10.73
2019-05-12T07:15:40.725Z,10.78
2019-05-12T07:18:46.409Z,10.95
2019-05-12T07:21:50.594Z,10.91
2019-05-12T07:24:55.815Z,10.85
2019-05-12T07:28:01.551Z,10.88
2019-05-12T07:31:05.363Z,11.07
2019-05-12T07:34:09.300Z,11.25
2019-05-12T07:37:15.264Z,11.24
2019-05-12T07:40:25.777Z,11.35
2019-05-12T07:43:27.536Z,11.60
2019-05-12T07:46:31.445Z,11.67
2019-05-12T07:49:38.519Z,11.90
2019-05-12T07:52:40.818Z,12.05
2019-05-12T07:55:49.182Z,12.13
2019-05-12T07:58:56.506Z,12.24
2019-05-12T08:01:56.240Z,12.25
2019-05-12T08:05:00.325Z,12.37
2019-05-12T08:08:10.868Z,12.32
2019-05-12T08:11:09.677Z,12.40
2019-05-12T08:14:24.745Z,12.55
2019-05-12T08:17:19.715Z,12.61
2019-05-12T08:20:23.980Z,12.33
2019-05-12T08:23:27.878Z,12.39
2019-05-12T08:26:33.490Z,12.38
2019-05-12T08:29:37.317Z,12.61
2019-05-12T08:32:41.257Z,12.33
2019-05-12T08:35:45.278Z,12.32
2019-05-12T08:38:49.102Z,12.52
2019-05-12T08:41:53.540Z,12.65
2019-05-12T08:44:57.584Z,12.74
2019-05-12T08:48:03.675Z,12.34
2019-05-12T08:51:13.923Z,12.71
2019-05-12T08:54:14.173Z,12.91
2019-05-12T08:57:18.364Z,12.89
2019-05-12T09:00:39.546Z,12.68
2019-05-12T09:03:44.299Z,12.46
2019-05-12T09:06:50.092Z,12.83
2019-05-12T09:09:54.340Z,12.97
2019-05-12T09:12:58.352Z,13.07
2019-05-12T09:16:04.280Z,13.26
2019-05-12T09:19:10.223Z,13.42
2019-05-12T09:22:18.482Z,13.44
2019-05-12T09:25:19.497Z,13.45
2019-05-12T09:28:23.987Z,13.41
2019-05-12T09:31:29.449Z,13.47
2019-05-12T09:34:33.745Z,13.63
2019-05-12T09:37:40.304Z,13.66
2019-05-12T09:40:43.884Z,14.00
2019-05-12T09:43:50.446Z,13.43
2019-05-12T09:46:53.580Z,13.70
2019-05-12T09:49:57.364Z,13.86
2019-05-12T09:53:09.720Z,13.65
2019-05-12T09:56:07.134Z,13.56
2019-05-12T09:59:19.013Z,13.52
2019-05-12T10:02:20.735Z,13.73
2019-05-12T10:05:23.184Z,13.77
2019-05-12T10:08:29.422Z,13.53
2019-05-12T10:11:32.622Z,13.68
2019-05-12T10:14:40.749Z,13.84
2019-05-12T10:17:43.398Z,13.74
2019-05-12T10:20:47.420Z,13.92
2019-05-12T10:23:56.411Z,13.72
2019-05-12T10:26:56.903Z,13.86
2019-05-12T10:30:05.611Z,14.39
2019-05-12T10:33:06.329Z,14.15
2019-05-12T10:36:10.157Z,14.08
2019-05-12T10:39:14.129Z,14.05
2019-05-12T10:42:17.968Z,14.34
2019-05-12T10:45:24.413Z,14.43
2019-05-12T10:48:28.244Z,14.01
2019-05-12T10:51:34.240Z,14.22
2019-05-12T10:54:37.705Z,14.39
2019-05-12T10:57:43.768Z,14.15
2019-05-12T11:00:47.480Z,14.22
2019-05-12T11:03:52.227Z,14.03
2019-05-12T11:06:56.041Z,13.96
2019-05-12T11:10:05.632Z,14.12
2019-05-12T11:13:08.456Z,14.23
2019-05-12T11:16:14.095Z,14.29
2019-05-12T11:19:16.834Z,14.23
2019-05-12T11:22:20.689Z,14.46
2019-05-12T11:25:24.814Z,14.29
2019-05-12T11:28:28.949Z,14.22
2019-05-12T11:31:33.444Z,14.15
2019-05-12T11:34:37.600Z,13.94
2019-05-12T11:37:41.408Z,14.12
2019-05-12T11:40:45.254Z,13.99
2019-05-12T11:43:49.154Z,14.30
2019-05-12T11:46:54.696Z,14.27
2019-05-12T11:50:03.893Z,14.13
2019-05-12T11:53:04.557Z,14.14
2019-05-12T11:56:09.377Z,14.37
2019-05-12T11:59:13.871Z,14.50
2019-05-12T12:02:20.148Z,14.65
2019-05-12T12:05:24.796Z,14.78
2019-05-12T12:08:35.656Z,14.53
2019-05-12T12:11:34.337Z,14.60
2019-05-12T12:14:40.170Z,14.69
2019-05-12T12:17:44.252Z,14.79
2019-05-12T12:20:48.843Z,14.69
2019-05-12T12:23:53.478Z,14.55
2019-05-12T12:26:57.525Z,14.72
2019-05-12T12:30:13.748Z,14.90
2019-05-12T12:33:06.934Z,14.87
2019-05-12T12:36:10.773Z,14.53
2019-05-12T12:39:14.778Z,14.43
2019-05-12T12:42:18.637Z,14.51
2019-05-12T12:45:40.232Z,14.49
2019-05-12T12:48:43.985Z,14.25
2019-05-12T12:51:47.918Z,14.19
2019-05-12T12:54:51.748Z,14.49
2019-05-12T12:57:55.598Z,14.73
2019-05-12T13:00:59.593Z,14.82
2019-05-12T13:04:06.330Z,14.90
2019-05-12T13:07:09.010Z,14.67
2019-05-12T13:10:14.287Z,14.80
2019-05-12T13:13:18.320Z,14.79
2019-05-12T13:16:23.846Z,15.14
2019-05-12T13:19:27.959Z,14.99
2019-05-12T13:22:33.731Z,15.12
2019-05-12T13:25:39.003Z,15.20
2019-05-12T13:28:45.445Z,15.25
2019-05-12T13:31:48.623Z,15.03
2019-05-12T13:34:52.461Z,15.18
2019-05-12T13:38:00.317Z,15.02
2019-05-12T13:41:04.245Z,14.95
2019-05-12T13:44:07.605Z,14.84
2019-05-12T13:47:13.970Z,15.04
2019-05-12T13:50:22.063Z,15.40
2019-05-12T13:53:24.323Z,15.25
2019-05-12T13:56:33.123Z,15.03
2019-05-12T13:59:34.167Z,15.11
2019-05-12T14:02:38.034Z,14.97
2019-05-12T14:05:50.255Z,14.93
2019-05-12T14:08:47.585Z,14.80
2019-05-12T14:11:53.708Z,14.94
2019-05-12T14:14:57.062Z,14.81
2019-05-12T14:18:03.278Z,15.01
2019-05-12T14:21:06.675Z,14.82
2019-05-12T14:24:10.499Z,14.95
2019-05-12T14:27:18.757Z,15.11
2019-05-12T14:30:20.109Z,15.18
2019-05-12T14:33:24.724Z,15.04
2019-05-12T14:36:31.943Z,14.88
2019-05-12T14:39:34.573Z,15.09
2019-05-12T14:42:39.899Z,15.11
2019-05-12T14:46:00.277Z,15.18
2019-05-12T14:49:03.597Z,15.13
2019-05-12T14:52:07.683Z,15.48
2019-05-12T14:55:13.647Z,15.47
2019-05-12T14:58:20.581Z,15.57
2019-05-12T15:01:23.854Z,15.23
2019-05-12T15:04:29.948Z,15.27
2019-05-12T15:07:33.921Z,15.51
2019-05-12T15:10:38.033Z,15.90
2019-05-12T15:13:43.703Z,16.02
2019-05-12T15:16:47.634Z,15.99
2019-05-12T15:19:51.557Z,16.21
2019-05-12T15:22:55.530Z,15.73
2019-05-12T15:25:59.440Z,15.75
2019-05-12T15:29:05.319Z,15.97
2019-05-12T15:32:08.966Z,16.07
2019-05-12T15:35:13.900Z,15.97
2019-05-12T15:38:17.819Z,16.05
2019-05-12T15:41:23.722Z,16.35
2019-05-12T15:44:31.759Z,16.57
2019-05-12T15:47:35.185Z,16.15
2019-05-12T15:50:38.559Z,16.16
2019-05-12T15:53:44.602Z,15.89
2019-05-12T15:56:48.301Z,15.62
2019-05-12T15:59:54.120Z,15.60
2019-05-12T16:02:57.727Z,15.88
2019-05-12T16:06:10.247Z,16.01
2019-05-12T16:09:08.995Z,15.93
2019-05-12T16:12:20.201Z,15.88
2019-05-12T16:15:19.477Z,15.12
2019-05-12T16:18:26.747Z,14.48
2019-05-12T16:21:29.048Z,14.14
2019-05-12T16:24:34.040Z,14.15
2019-05-12T16:27:38.639Z,13.80
2019-05-12T16:30:43.899Z,13.61
2019-05-12T16:33:52.827Z,13.48
2019-05-12T16:36:54.785Z,13.57
2019-05-12T16:39:58.782Z,13.17
2019-05-12T16:43:03.982Z,13.18
2019-05-12T16:46:07.891Z,13.05
2019-05-12T16:49:13.965Z,12.97
2019-05-12T16:52:17.383Z,13.00
2019-05-12T16:55:21.300Z,12.84
2019-05-12T16:58:33.317Z,12.98
2019-05-12T17:01:30.846Z,12.92
2019-05-12T17:04:34.707Z,12.88
2019-05-12T17:07:38.551Z,12.79
2019-05-12T17:10:49.700Z,12.66
2019-05-12T17:13:59.757Z,12.57
2019-05-12T17:16:54.330Z,12.62
2019-05-12T17:19:58.414Z,12.57
2019-05-12T17:23:03.501Z,12.49
2019-05-12T17:26:07.499Z,12.50
2019-05-12T17:29:13.505Z,12.47
2019-05-12T17:32:17.115Z,12.24
2019-05-12T17:35:29.297Z,12.28
2019-05-12T17:38:29.841Z,12.28
2019-05-12T17:41:40.541Z,12.07
2019-05-12T17:44:39.085Z,12.18
2019-05-12T17:47:44.541Z,12.15
2019-05-12T17:50:50.555Z,12.31
2019-05-12T17:53:54.990Z,12.29
2019-05-12T17:56:59.466Z,11.97
2019-05-12T18:00:08.620Z,11.89
2019-05-12T18:03:20.580Z,11.96
2019-05-12T18:06:14.621Z,11.81
2019-05-12T18:09:20.195Z,11.60
2019-05-12T18:12:26.757Z,11.63
2019-05-12T18:15:33.361Z,11.53
2019-05-12T18:18:38.077Z,11.51
2019-05-12T18:21:40.974Z,11.53
2019-05-12T18:24:49.431Z,11.43
2019-05-12T18:27:51.054Z,11.27
2019-05-12T18:30:54.823Z,11.15
2019-05-12T18:33:58.709Z,11.10
2019-05-12T18:37:02.616Z,11.06
2019-05-12T18:40:07.409Z,11.00
2019-05-12T18:43:11.319Z,10.82
2019-05-12T18:46:15.299Z,10.71
2019-05-12T18:49:19.118Z,10.66
2019-05-12T18:52:23.637Z,10.67
2019-05-12T18:55:29.130Z,10.42
2019-05-12T18:58:35.385Z,10.47
2019-05-12T19:01:39.453Z,10.41
2019-05-12T19:04:44.305Z,10.38
2019-05-12T19:07:48.381Z,10.21
2019-05-12T19:10:52.213Z,10.16
2019-05-12T19:13:57.193Z,9.97
2019-05-12T19:17:03.596Z,9.98
2019-05-12T19:20:07.139Z,9.93
2019-05-12T19:23:10.973Z,10.01
2019-05-12T19:26:14.856Z,9.88
2019-05-12T19:29:18.679Z,9.72
2019-05-12T19:32:27.951Z,9.61
2019-05-12T19:35:28.124Z,9.63
2019-05-12T19:38:34.413Z,9.36
2019-05-12T19:41:38.110Z,9.28
2019-05-12T19:44:43.890Z,9.37
2019-05-12T19:47:49.245Z,9.19
2019-05-12T19:50:56.907Z,9.02
2019-05-12T19:53:58.843Z,9.05
2019-05-12T19:57:02.776Z,9.22
2019-05-12T20:00:07.215Z,9.10
2019-05-12T20:03:13.703Z,9.04
2019-05-12T20:06:17.048Z,8.98
2019-05-12T20:09:21.090Z,9.02
2019-05-12T20:12:25.053Z,9.00
2019-05-12T20:15:30.244Z,8.78
2019-05-12T20:18:43.085Z,8.67
2019-05-12T20:21:40.517Z,8.63
2019-05-12T20:24:44.546Z,8.56
2019-05-12T20:27:48.483Z,8.50
2019-05-12T20:31:00.781Z,8.47
2019-05-12T20:34:04.433Z,8.35
2019-05-12T20:37:06.008Z,8.35
2019-05-12T20:40:09.488Z,8.49
2019-05-12T20:43:14.806Z,8.26
2019-05-12T20:46:25.734Z,8.34
2019-05-12T20:49:24.669Z,8.17
2019-05-12T20:52:28.587Z,8.24
2019-05-12T20:55:36.567Z,8.03
2019-05-12T20:58:43.534Z,8.05
2019-05-12T21:01:44.271Z,8.05
2019-05-12T21:05:00.025Z,8.15
2019-05-12T21:07:55.952Z,8.08
2019-05-12T21:10:59.297Z,7.97
2019-05-12T21:14:09.802Z,8.03
2019-05-12T21:17:14.462Z,7.97
2019-05-12T21:20:16.915Z,7.68
2019-05-12T21:23:20.628Z,7.60
2019-05-12T21:26:28.457Z,7.66
2019-05-12T21:29:30.183Z,7.72
2019-05-12T21:32:34.123Z,7.79
2019-05-12T21:35:40.677Z,7.62
2019-05-12T21:38:43.676Z,7.64
2019-05-12T21:41:52.087Z,7.59
2019-05-12T21:44:53.349Z,7.57
2019-05-12T21:47:57.164Z,7.61
2019-05-12T21:51:01.037Z,7.66
2019-05-12T21:54:06.580Z,7.48
2019-05-12T21:57:10.732Z,7.45
2019-05-12T22:00:24.011Z,7.39
2019-05-12T22:03:27.989Z,7.39
2019-05-12T22:06:34.065Z,7.21
2019-05-12T22:09:41.523Z,7.14
2019-05-12T22:12:44.068Z,7.38
2019-05-12T22:15:51.368Z,7.47
2019-05-12T22:18:58.632Z,7.37
2019-05-12T22:22:01.072Z,7.34
2019-05-12T22:25:09.668Z,7.23
2019-05-12T22:28:10.772Z,7.40
2019-05-12T22:31:14.820Z,7.58
2019-05-12T22:34:18.635Z,7.38
2019-05-12T22:37:23.973Z,7.41
2019-05-12T22:40:28.154Z,7.43
2019-05-12T22:43:40.846Z,7.40
2019-05-12T22:46:37.671Z,7.48
2019-05-12T22:49:41.505Z,7.34
2019-05-12T22:52:49.374Z,7.42
2019-05-12T22:55:53.293Z,7.28
2019-05-12T22:58:59.981Z,7.24
2019-05-12T23:02:04.362Z,7.16
2019-05-12T23:05:10.292Z,7.18
2019-05-12T23:08:14.253Z,7.13
2019-05-12T23:11:23.770Z,7.02
2019-05-12T23:14:25.219Z,6.98
2019-05-12T23:17:29.423Z,6.86
2019-05-12T23:20:35.699Z,6.95
2019-05-12T23:23:38.896Z,6.91
2019-05-12T23:26:47.785Z,7.00
2019-05-12T23:29:49.174Z,6.96
2019-05-12T23:32:53.228Z,7.17
2019-05-12T23:35:57.160Z,7.09
2019-05-12T23:39:02.825Z,6.97
2019-05-12T23:42:06.759Z,7.07
2019-05-12T23:45:10.948Z,7.03
2019-05-12T23:48:14.968Z,7.04
2019-05-12T23:51:18.986Z,7.11
2019-05-12T23:54:23.835Z,7.07
2019-05-12T23:57:27.857Z,7.04
